Latest Weather Observations for Narrabri

IDN60801

Issued at 11:35 pm EST Wednesday 23 July 2014 (issued every 30 minutes, with the page automatically refreshed every 10 minutes)

About weather observations | Map of weather stations | Latest weather observations for NSW | Other Formats
Station Details ID: 054038 Name: NARRABRI AIRPORT AWS Lat: -30.32 Lon: 149.83 Height: 229.02 m
Data from the previous 72 hours. | See also: Recent months at Narrabri
Date/Time
EST
Temp
°C
App
Temp
°C
Dew
Point
Rel
Hum
%
Delta-T
°C
Wind Press
QNH
hPa
Press
MSL
hPa
Rain
since 9 am
mm
Dir
 
Spd
km/h
Gust
km/h
Spd
kts
Gust
kts
23/11:30pm 9.4 8.4 5.6 77 1.7 S 0 0 0 0 1020.9 - -
23/11:00pm 11.2 8.6 6.1 71 2.4 E 9 15 5 8 1021.1 1021.2 -
23/10:30pm 10.0 7.6 6.9 81 1.5 E 9 13 5 7 1021.2 - -
23/10:00pm 10.1 9.4 6.8 80 1.6 CALM 0 0 0 0 1021.6 1021.7 -
23/09:30pm 10.3 8.3 7.0 80 1.6 E 7 9 4 5 1021.4 - -
23/09:00pm 11.1 9.2 6.8 75 2.1 ESE 6 11 3 6 1021.0 1021.1 0.0
23/08:30pm 11.1 10.0 6.8 75 2.1 E 2 7 1 4 1021.2 - -
23/08:00pm 11.6 10.7 5.9 68 2.7 CALM 0 2 0 1 1021.1 1021.2 -
23/07:30pm 12.5 10.4 5.9 64 3.1 WSW 6 9 3 5 1021.0 - -
23/07:00pm 14.7 12.1 6.0 56 4.2 ESE 9 13 5 7 1020.4 1020.6 -
23/06:30pm 15.4 12.8 5.9 53 4.6 ESE 9 13 5 7 1020.1 - -
23/06:00pm 15.4 12.8 6.1 54 4.5 SE 9 11 5 6 1020.2 1020.4 -
23/05:30pm 15.4 12.8 5.9 53 4.6 SE 9 13 5 7 1020.0 - -
23/05:00pm 16.0 13.4 6.2 52 4.8 ESE 9 13 5 7 1019.6 1019.8 -
23/04:30pm 17.6 15.3 5.9 46 5.8 SSE 7 11 4 6 1019.9 - -
23/04:00pm 18.5 16.4 6.0 44 6.2 S 6 9 3 5 1019.9 1020.1 -
23/03:30pm 18.7 16.1 6.2 44 6.3 SW 9 11 5 6 1020.1 - -
23/03:00pm 18.8 16.7 6.6 45 6.1 W 7 13 4 7 1019.9 1020.1 -
23/02:30pm 18.9 16.6 5.7 42 6.6 SW 7 15 4 8 1020.2 - -
23/02:00pm 18.9 16.3 6.1 43 6.4 SSW 9 15 5 8 1020.1 1020.3 -
23/01:30pm 19.2 17.2 6.3 43 6.5 NNE 6 13 3 7 1020.5 - 0.0
23/01:00pm 18.4 16.3 6.6 46 5.9 SW 7 11 4 6 1020.9 1021.0 0.0
23/12:30pm 17.9 15.2 7.3 50 5.4 SW 11 19 6 10 1021.6 - 0.0
23/12:00pm 17.4 15.0 6.9 50 5.3 SSW 9 15 5 8 1022.0 1022.2 0.0
23/11:30am 16.7 13.8 6.5 51 5.0 S 11 17 6 9 1023.0 - 0.0
23/11:00am 15.8 12.8 7.6 58 4.1 S 13 17 7 9 1023.8 1024.0 0.0
23/10:30am 14.2 11.4 7.0 62 3.6 SSE 11 17 6 9 1024.3 - 0.0
23/10:00am 13.0 10.6 6.8 66 3.0 SSE 9 13 5 7 1024.5 1024.7 0.0
23/09:30am 11.4 8.5 6.3 71 2.4 SSE 11 17 6 9 1024.6 - 0.0
23/09:00am 10.1 7.1 5.9 75 2.0 SE 11 17 6 9 1024.3 1024.5 0.0
23/08:30am 9.0 6.7 5.6 79 1.6 SSE 7 13 4 7 1024.2 - 0.0
23/08:00am 7.9 5.9 7.3 96 0.3 SE 7 11 4 6 1023.9 1024.1 0.0
23/07:30am 4.2 - - - - E 6 7 3 4 1023.5 - 0.0
23/07:00am 4.4 1.7 3.8 96 0.3 SE 7 13 4 7 1023.2 1023.4 0.0
23/06:30am 2.9 0.2 2.5 97 0.2 NE 6 9 3 5 1022.9 - 0.0
23/06:00am 4.8 - - - - ESE 4 9 2 5 1022.4 1022.6 0.0
23/05:30am 3.7 1.9 3.4 98 0.1 ESE 2 7 1 4 1022.2 - 0.0
23/05:00am 3.4 0.7 2.5 94 0.4 NNE 6 7 3 4 1021.9 1022.1 0.0
23/04:30am 5.2 3.1 4.0 92 0.5 W 4 7 2 4 1021.5 - 0.0
23/04:00am 6.6 4.7 4.8 88 0.8 E 4 7 2 4 1021.4 1021.5 0.0
23/03:30am 6.9 5.0 5.1 88 0.8 NNE 4 9 2 5 1021.4 - 0.0
23/03:00am 7.8 4.4 5.8 87 0.9 SE 13 24 7 13 1021.1 1021.2 0.0
23/02:30am 8.1 3.4 6.2 88 0.9 SE 20 28 11 15 1021.2 - 0.0
23/02:00am 8.2 3.5 6.2 87 0.9 SE 20 28 11 15 1021.2 1021.3 0.0
23/01:30am 8.7 3.7 6.5 86 1.0 SE 22 32 12 17 1021.2 - 0.0
23/01:00am 9.2 4.8 6.5 83 1.3 SE 19 28 10 15 1021.2 1021.3 0.0
23/12:30am 9.5 5.5 6.6 82 1.4 SE 17 28 9 15 1021.5 - 0.0
23/12:00am 9.8 6.9 6.7 81 1.5 ESE 11 20 6 11 1022.0 1022.2 0.0
 
Date/Time
EST
Temp
°C
App
Temp
°C
Dew
Point
Rel
Hum
%
Delta-T
°C
Wind Press
QNH
hPa
Press
MSL
hPa
Rain
since 9 am
mm
Dir
 
Spd
km/h
Gust
km/h
Spd
kts
Gust
kts
22/11:30pm 10.6 6.2 7.3 80 1.6 SE 20 26 11 14 1022.0 - 0.0
22/11:00pm 10.7 6.3 7.6 81 1.5 SE 20 28 11 15 1022.0 1022.2 0.0
22/10:30pm 10.9 7.1 7.4 79 1.7 SE 17 24 9 13 1021.8 - 0.0
22/10:00pm 11.3 7.8 7.2 76 2.0 SE 15 20 8 11 1021.8 1022.0 0.0
22/09:30pm 11.3 8.0 6.6 73 2.2 SE 13 17 7 9 1022.0 - 0.0
22/09:00pm 13.3 10.0 6.6 64 3.2 SE 13 19 7 10 1021.8 1022.0 0.0
22/08:30pm 13.6 10.4 6.9 64 3.3 ESE 13 19 7 10 1021.7 - 0.0
22/08:00pm 13.9 10.4 7.4 65 3.2 ESE 15 20 8 11 1021.7 1021.8 0.0
22/07:30pm 12.5 9.3 7.0 69 2.7 SE 13 17 7 9 1021.9 - 0.0
22/07:00pm 13.0 9.8 6.8 66 3.0 SE 13 19 7 10 1021.7 1021.8 0.0
22/06:30pm 14.2 11.0 6.8 61 3.6 SE 13 19 7 10 1021.6 - 0.0
22/06:00pm 14.5 10.8 6.3 58 4.0 SE 15 19 8 10 1021.4 1021.5 0.0
22/05:30pm 15.1 12.5 4.2 48 5.1 SE 7 9 4 5 1020.9 - 0.0
22/05:00pm 17.1 14.1 4.1 42 6.1 SE 9 11 5 6 1020.5 1020.7 0.0
22/04:30pm 18.3 15.0 4.8 41 6.6 SSE 11 15 6 8 1020.2 - 0.0
22/04:00pm 18.9 15.8 5.7 42 6.5 S 11 17 6 9 1020.1 1020.3 0.0
22/03:30pm 18.8 15.0 6.0 43 6.4 SSE 15 20 8 11 1020.2 - 0.0
22/03:00pm 19.6 16.7 4.5 37 7.3 S 9 17 5 9 1020.0 1020.2 0.0
22/02:30pm 19.4 16.2 5.1 39 7.0 SSE 11 17 6 9 1020.0 - 0.0
22/02:00pm 19.0 16.3 5.5 41 6.7 S 9 15 5 8 1020.0 1020.2 0.0
22/01:30pm 17.5 16.5 7.3 51 5.2 S 2 6 1 3 1020.3 - 0.0
22/01:00pm 17.4 15.6 8.0 54 4.8 SSW 7 15 4 8 1020.6 1020.8 0.0
22/12:30pm 18.2 16.0 9.5 57 4.6 S 11 15 6 8 1021.1 - 0.0
22/12:00pm 18.1 16.8 10.0 59 4.3 W 7 15 4 8 1021.6 1021.7 0.0
22/11:30am 17.2 15.5 9.9 62 3.9 SSW 9 15 5 8 1022.2 - 0.0
22/11:00am 16.6 15.1 9.3 62 3.8 SW 7 13 4 7 1022.8 1023.0 0.0
22/10:30am 15.4 13.8 8.6 64 3.5 SSW 7 11 4 6 1023.3 - 0.0
22/10:00am 14.7 13.1 8.6 67 3.1 S 7 11 4 6 1023.5 1023.7 0.0
22/09:30am 13.7 11.8 7.7 67 3.0 SSE 7 11 4 6 1023.4 - 0.0
22/09:00am 12.3 10.0 7.6 73 2.3 SE 9 13 5 7 1023.3 1023.5 0.0
22/08:30am 10.7 8.3 6.8 77 1.9 SE 9 11 5 6 1023.2 - 0.0
22/08:00am 9.5 7.7 7.8 89 0.8 S 7 9 4 5 1022.9 1023.1 0.0
22/07:30am 7.1 6.0 6.8 98 0.1 SSE 2 9 1 5 1022.7 - 0.0
22/07:00am 6.4 5.4 5.7 95 0.3 CALM 0 0 0 0 1022.4 1022.6 0.0
22/06:30am 7.0 4.3 5.8 92 0.5 E 9 13 5 7 1022.0 - 0.0
22/06:00am 8.8 6.3 6.4 85 1.1 SE 9 17 5 9 1021.5 1021.6 0.0
22/05:30am 9.0 6.5 6.6 85 1.1 SSE 9 13 5 7 1021.4 - 0.0
22/05:00am 9.3 8.5 6.7 84 1.2 CALM 0 4 0 2 1021.2 1021.3 0.0
22/04:30am 9.3 7.4 6.9 85 1.1 SE 6 11 3 6 1021.0 - 0.0
22/04:00am 8.9 6.5 6.9 87 0.9 SSE 9 13 5 7 1021.0 1021.1 0.0
22/03:30am 8.9 6.2 7.2 89 0.8 SSE 11 19 6 10 1021.0 - 0.0
22/03:00am 7.9 6.8 6.7 92 0.6 S 2 9 1 5 1021.1 1021.2 0.0
22/02:30am 7.2 5.4 7.1 99 0.0 SE 6 11 3 6 1021.2 - 0.0
22/02:00am 6.6 5.4 6.5 99 0.0 E 2 6 1 3 1021.3 1021.4 0.0
22/01:30am 7.4 5.5 6.8 96 0.3 SSE 6 9 3 5 1021.5 - 0.0
22/01:00am 7.4 5.4 7.3 99 0.0 E 7 11 4 6 1021.6 1021.7 0.0
22/12:30am 5.8 3.5 5.5 98 0.1 NNE 7 13 4 7 1021.7 - 0.0
22/12:00am 6.8 5.3 6.7 99 0.0 SE 4 7 2 4 1021.7 1021.8 0.0
 
Date/Time
EST
Temp
°C
App
Temp
°C
Dew
Point
Rel
Hum
%
Delta-T
°C
Wind Press
QNH
hPa
Press
MSL
hPa
Rain
since 9 am
mm
Dir
 
Spd
km/h
Gust
km/h
Spd
kts
Gust
kts
21/11:30pm 7.0 5.9 6.7 98 0.1 ESE 2 6 1 3 1021.8 - 0.0
21/11:00pm 7.5 4.8 7.5 100 0.0 E 11 15 6 8 1021.9 1022.1 0.0
21/10:30pm 6.7 5.4 6.1 96 0.3 NNE 2 9 1 5 1022.1 - 0.0
21/10:00pm 7.0 6.2 6.3 95 0.3 CALM 0 0 0 0 1022.2 1022.4 0.0
21/09:30pm 7.3 5.0 5.8 90 0.7 S 7 9 4 5 1022.2 - 0.0
21/09:00pm 8.8 7.5 6.1 83 1.2 ESE 2 6 1 3 1022.2 1022.4 0.0
21/08:30pm 10.6 7.9 7.3 80 1.6 E 11 20 6 11 1022.0 - 0.0
21/08:00pm 9.9 8.0 6.6 80 1.6 E 6 13 3 7 1022.0 1022.2 0.0
21/07:30pm 11.6 8.7 8.1 79 1.7 E 13 15 7 8 1021.8 - 0.0
21/07:00pm 11.3 8.9 7.0 75 2.1 E 9 9 5 5 1021.6 1021.7 0.0
21/06:30pm 11.3 9.6 7.6 78 1.8 S 6 7 3 4 1021.4 - 0.0
21/06:00pm 11.5 9.6 6.8 73 2.3 ESE 6 11 3 6 1021.1 1021.2 0.0
21/05:30pm 14.3 12.5 7.1 62 3.6 SSE 6 7 3 4 1021.0 - 0.0
21/05:00pm 16.1 14.1 7.3 56 4.4 SSE 7 9 4 5 1020.7 1020.9 0.0
21/04:30pm 17.9 15.6 7.3 50 5.4 SSW 9 13 5 7 1020.7 - 0.0
21/04:00pm 17.9 15.9 7.3 50 5.4 SSW 7 11 4 6 1020.7 1020.9 0.0
21/03:30pm 17.9 15.5 7.0 49 5.5 SW 9 13 5 7 1020.6 - 0.0
21/03:00pm 18.3 16.0 7.4 49 5.6 WSW 9 13 5 7 1020.7 1020.9 0.0
21/02:30pm 19.7 17.8 7.4 45 6.3 WSW 7 11 4 6 1020.7 - 0.0
21/02:00pm 19.0 16.2 7.1 46 6.1 WNW 11 15 6 8 1020.9 1021.0 0.0
21/01:30pm 18.9 17.0 7.4 47 5.9 NNW 7 15 4 8 1021.2 - 0.0
21/01:00pm 18.6 16.9 7.7 49 5.6 NW 6 9 3 5 1021.4 1021.5 0.0
21/12:30pm 18.0 16.1 7.7 51 5.3 WSW 7 11 4 6 1022.1 - 0.0
21/12:00pm 17.6 15.4 7.9 53 5.0 S 9 17 5 9 1022.6 1022.8 0.0
21/11:30am 16.9 14.0 8.1 56 4.5 S 13 19 7 10 1023.1 - 0.0
21/11:00am 15.6 12.7 8.1 61 3.8 SSE 13 19 7 10 1023.7 1023.9 0.0
21/10:30am 15.1 11.8 7.9 62 3.6 SSE 15 20 8 11 1024.1 - 0.0
21/10:00am 13.7 9.9 7.7 67 3.0 SSE 17 20 9 11 1024.3 1024.5 0.0
21/09:30am 13.0 8.7 7.7 70 2.6 SE 20 24 11 13 1024.4 - 0.0
21/09:00am 11.7 7.4 7.2 74 2.2 SE 19 24 10 13 1024.4 1024.6 0.0
21/08:30am 10.2 5.3 6.7 79 1.7 SE 22 30 12 16 1024.4 - 0.0
21/08:00am 10.1 5.2 7.0 81 1.5 SE 22 32 12 17 1024.2 1024.4 0.0
21/07:30am 9.4 4.5 6.8 84 1.2 SE 22 28 12 15 1024.1 - 0.0
21/07:00am 9.3 4.7 6.7 84 1.2 SE 20 28 11 15 1023.8 1024.0 0.0
21/06:30am 9.5 4.6 6.9 84 1.2 SE 22 28 12 15 1023.2 - 0.0
21/06:00am 9.2 3.9 6.8 85 1.1 SE 24 30 13 16 1023.0 1023.2 0.0
21/05:30am 9.0 4.4 6.6 85 1.1 SSE 20 28 11 15 1022.7 - 0.0
21/05:00am 9.3 4.4 6.7 84 1.2 SE 22 33 12 18 1022.6 1022.8 0.0
21/04:30am 8.9 3.5 6.5 85 1.1 SSE 24 32 13 17 1022.4 - 0.0
21/04:00am 9.2 4.2 6.6 84 1.2 SE 22 32 12 17 1022.2 1022.4 0.0
21/03:30am 8.9 4.3 6.3 84 1.2 SE 20 26 11 14 1022.5 - 0.0
21/03:00am 9.4 4.4 6.5 82 1.4 SSE 22 30 12 16 1022.5 1022.7 0.0
21/02:30am 9.5 4.9 6.6 82 1.4 SSE 20 30 11 16 1022.7 - 0.0
21/02:00am 9.7 5.1 6.6 81 1.5 SSE 20 26 11 14 1023.0 1023.2 0.0
21/01:30am 9.7 5.1 6.6 81 1.5 SSE 20 28 11 15 1023.0 - 0.0
21/01:00am 9.7 4.7 6.4 80 1.5 SE 22 30 12 16 1023.0 1023.2 0.0
21/12:30am 9.8 5.2 6.5 80 1.6 SSE 20 30 11 16 1022.9 - 0.0
21/12:00am 9.8 5.2 6.3 79 1.6 SSE 20 28 11 15 1023.0 1023.2 0.0

Other Formats:

Comma delimited format used in spreadsheet applications
http://www.bom.gov.au/fwo/IDN60801/IDN60801.95734.axf

JavaScript Object Notation format (JSON) in row-major order
http://www.bom.gov.au/fwo/IDN60801/IDN60801.95734.json